Time;durP1;ratioP1;P1;durP2;ratioP2;P2;SDS_P1;SDS_P2;PMS_P1;PMS_P2;Temp;Humidity;BMP_temperature;BMP_pressure;BME280_temperature;BME280_humidity;BME280_pressure;Samples;Min_cycle;Max_cycle;Signal;HPM_P1;HPM_P2
2024/02/12 00:02:02;;;;;;;13.15;4.93;;;11.80;98.10;;;;;;5009556;28;20030;-54
2024/02/12 00:04:28;;;;;;;9.40;3.92;;;11.90;97.30;;;;;;5003792;28;20025;-58
2024/02/12 00:06:57;;;;;;;9.57;4.28;;;;;;;;;;5002153;28;20034;-58
2024/02/12 00:09:26;;;;;;;9.85;3.72;;;11.50;98.20;;;;;;5022224;28;20049;-53
2024/02/12 00:11:53;;;;;;;13.40;4.75;;;11.50;98.60;;;;;;5013388;28;20034;-56
2024/02/12 00:14:24;;;;;;;13.70;4.40;;;11.60;98.70;;;;;;5006326;28;20100;-59
2024/02/12 00:16:49;;;;;;;9.95;3.58;;;11.80;98.60;;;;;;5001991;28;20458;-56
2024/02/12 00:19:17;;;;;;;12.88;5.47;;;11.80;98.40;;;;;;5015376;28;20026;-61
2024/02/12 00:21:45;;;;;;;11.50;3.88;;;11.80;98.50;;;;;;5008157;28;20137;-56
2024/02/12 00:24:11;;;;;;;7.43;2.83;;;11.80;98.50;;;;;;5008690;28;20038;-55
2024/02/12 00:26:39;;;;;;;11.10;3.67;;;11.60;99.00;;;;;;5008781;28;20026;-58
2024/02/12 00:29:08;;;;;;;5.90;2.75;;;11.70;98.90;;;;;;5012026;28;20065;-59
2024/02/12 00:31:38;;;;;;;8.32;2.85;;;11.80;98.50;;;;;;5011050;28;20034;-56
2024/02/12 00:34:03;;;;;;;7.05;3.28;;;11.80;98.50;;;;;;5005467;28;20129;-58
2024/02/12 00:36:29;;;;;;;7.18;3.20;;;11.90;98.60;;;;;;5009637;28;20061;-58
2024/02/12 00:38:55;;;;;;;9.13;3.60;;;11.80;98.70;;;;;;5009327;28;20029;-59
2024/02/12 00:41:22;;;;;;;4.70;2.33;;;11.90;98.50;;;;;;5004397;28;20033;-50
2024/02/12 00:43:47;;;;;;;9.88;3.20;;;12.00;98.20;;;;;;5013655;28;20373;-60
2024/02/12 00:46:18;;;;;;;5.72;2.30;;;12.00;98.00;;;;;;5011829;28;20026;-57
2024/02/12 00:48:45;;;;;;;7.72;2.90;;;12.20;97.40;;;;;;5011304;28;20520;-57
2024/02/12 00:51:12;;;;;;;7.40;3.10;;;12.10;98.00;;;;;;5006555;28;20044;-55
2024/02/12 00:53:42;;;;;;;9.70;4.10;;;12.10;98.40;;;;;;5007146;28;20482;-61
2024/02/12 00:56:08;;;;;;;11.80;5.22;;;12.00;98.40;;;;;;5009187;28;20381;-55
2024/02/12 00:58:34;;;;;;;9.57;2.60;;;11.80;98.60;;;;;;5008287;28;20042;-56
2024/02/12 01:01:02;;;;;;;8.07;2.88;;;11.70;99.00;;;;;;5006647;28;20100;-59
2024/02/12 01:03:28;;;;;;;6.45;2.70;;;11.70;99.00;;;;;;5021541;28;20152;-57
2024/02/12 01:05:54;;;;;;;6.53;2.65;;;11.70;99.30;;;;;;5007826;28;20038;-59
2024/02/12 01:08:21;;;;;;;7.53;3.65;;;11.70;99.40;;;;;;4999945;28;20062;-54
2024/02/12 01:10:47;;;;;;;7.60;3.00;;;11.90;99.20;;;;;;5004865;28;20034;-54
2024/02/12 01:13:13;;;;;;;7.80;2.80;;;11.90;98.90;;;;;;5009694;28;20100;-59
2024/02/12 01:15:40;;;;;;;8.40;2.65;;;12.00;99.00;;;;;;5007699;28;20030;-60
2024/02/12 01:18:07;;;;;;;5.78;2.47;;;12.00;99.00;;;;;;5004783;28;20531;-59
2024/02/12 01:20:34;;;;;;;7.35;3.42;;;11.90;99.60;;;;;;5008689;28;20468;-56
2024/02/12 01:23:00;;;;;;;7.45;2.40;;;11.90;99.70;;;;;;5002379;28;20029;-57
2024/02/12 01:25:25;;;;;;;8.40;2.50;;;11.90;99.50;;;;;;5006789;28;20435;-55
2024/02/12 01:27:52;;;;;;;9.65;3.10;;;12.00;99.20;;;;;;5007513;28;20026;-59
2024/02/12 01:30:18;;;;;;;9.13;3.38;;;12.00;99.30;;;;;;5007711;28;20034;-54
2024/02/12 01:32:44;;;;;;;8.18;3.55;;;12.10;98.80;;;;;;5009875;28;20100;-55
2024/02/12 01:35:11;;;;;;;11.10;4.97;;;12.20;98.30;;;;;;5012688;28;20049;-57
2024/02/12 01:37:36;;;;;;;7.05;3.25;;;12.40;97.60;;;;;;5022575;28;20050;-58
2024/02/12 01:40:02;;;;;;;10.05;4.07;;;12.60;96.70;;;;;;5006073;28;20383;-54
2024/02/12 01:42:28;;;;;;;6.55;3.70;;;12.90;96.10;;;;;;5002782;28;20045;-54
2024/02/12 01:45:04;;;;;;;7.65;3.22;;;;;;;;;;5002695;28;20034;-51
2024/02/12 01:47:33;;;;;;;8.73;5.18;;;13.20;94.70;;;;;;5011694;28;20034;-59
2024/02/12 01:50:00;;;;;;;20.40;9.32;;;13.40;94.70;;;;;;5005161;28;20037;-59
2024/02/12 01:52:29;;;;;;;14.10;6.35;;;13.50;94.40;;;;;;5008064;28;20029;-56
2024/02/12 01:54:57;;;;;;;10.82;4.82;;;13.70;99.90;;;;;;5001177;28;20103;-58
2024/02/12 01:57:26;;;;;;;8.80;3.47;;;13.70;94.10;;;;;;5004689;28;20461;-55
2024/02/12 01:59:52;;;;;;;11.52;3.28;;;;;;;;;;5014420;28;20026;-58
2024/02/12 02:02:17;;;;;;;8.13;2.97;;;13.70;99.90;;;;;;5005984;28;20417;-62
2024/02/12 02:04:43;;;;;;;9.18;2.70;;;14.00;94.10;;;;;;4997291;28;20038;-55
2024/02/12 02:07:19;;;;;;;9.20;2.33;;;14.00;94.10;;;;;;5002032;28;20133;-54
2024/02/12 02:09:46;;;;;;;5.78;2.55;;;14.10;93.90;;;;;;5014700;28;20038;-60
2024/02/12 02:12:13;;;;;;;6.05;3.22;;;14.00;94.30;;;;;;5002404;28;20135;-58
2024/02/12 02:14:39;;;;;;;6.93;2.05;;;13.90;94.50;;;;;;5003618;28;20053;-54
2024/02/12 02:17:05;;;;;;;10.38;2.42;;;13.90;93.90;;;;;;5007293;28;20033;-61
2024/02/12 02:19:32;;;;;;;12.77;6.75;;;13.80;93.60;;;;;;5013933;28;20460;-57
2024/02/12 02:21:58;;;;;;;22.52;10.35;;;14.00;93.40;;;;;;5008347;28;20053;-55
2024/02/12 02:24:24;;;;;;;16.48;4.53;;;14.00;93.40;;;;;;5002114;28;20481;-55
2024/02/12 02:26:49;;;;;;;8.20;3.17;;;13.80;93.60;;;;;;5023208;28;20096;-57
2024/02/12 02:29:15;;;;;;;13.90;5.70;;;;;;;;;;5009634;28;20034;-56
2024/02/12 02:31:41;;;;;;;10.77;3.65;;;13.50;94.40;;;;;;5007955;28;20062;-58
2024/02/12 02:34:07;;;;;;;7.75;3.50;;;13.20;96.00;;;;;;5003214;28;20069;-57
2024/02/12 02:36:34;;;;;;;8.32;2.80;;;13.00;97.10;;;;;;5006663;28;20401;-58
2024/02/12 02:39:02;;;;;;;8.63;3.17;;;12.80;99.00;;;;;;5021398;28;20042;-55
2024/02/12 02:41:28;;;;;;;7.28;2.92;;;12.90;99.00;;;;;;5005663;28;20033;-56
2024/02/12 02:43:54;;;;;;;13.02;3.38;;;13.20;98.50;;;;;;5009069;28;20034;-55
2024/02/12 02:46:26;;;;;;;12.05;3.80;;;13.30;98.40;;;;;;5008147;28;20029;-60
2024/02/12 02:48:53;;;;;;;7.68;3.30;;;13.00;98.30;;;;;;5012555;28;20374;-55
2024/02/12 02:51:29;;;;;;;13.13;3.85;;;12.60;99.70;;;;;;5003832;28;20034;-58
2024/02/12 02:53:55;;;;;;;7.47;2.30;;;12.20;99.90;;;;;;4999211;28;20062;-53
2024/02/12 02:56:22;;;;;;;6.97;2.33;;;12.00;99.90;;;;;;5012240;28;20041;-55
2024/02/12 02:58:51;;;;;;;10.65;3.08;;;12.00;99.90;;;;;;5033796;28;20042;-51
2024/02/12 03:01:21;;;;;;;6.93;3.35;;;12.00;99.90;;;;;;5004453;28;20037;-57
2024/02/12 03:03:51;;;;;;;5.45;2.05;;;11.90;99.90;;;;;;5008366;28;20064;-53
2024/02/12 03:06:21;;;;;;;7.32;3.03;;;12.00;99.90;;;;;;5006779;28;20113;-56
2024/02/12 03:08:50;;;;;;;3.65;2.20;;;11.90;99.90;;;;;;5024880;28;20089;-53
2024/02/12 03:11:19;;;;;;;9.25;2.03;;;11.90;99.90;;;;;;5004956;28;20465;-55
2024/02/12 03:13:48;;;;;;;4.38;1.55;;;11.90;99.90;;;;;;4955676;28;20053;-55
2024/02/12 03:16:15;;;;;;;6.50;1.80;;;11.80;99.90;;;;;;4985543;28;20042;-57
2024/02/12 03:18:41;;;;;;;4.28;2.10;;;11.80;99.90;;;;;;4982069;28;20046;-54
2024/02/12 03:21:09;;;;;;;4.55;2.10;;;11.90;99.90;;;;;;4990365;28;20497;-52
2024/02/12 03:23:35;;;;;;;6.20;2.20;;;11.90;99.90;;;;;;4982919;28;20030;-60
2024/02/12 03:26:02;;;;;;;7.57;2.25;;;11.90;99.90;;;;;;4979982;28;20022;-59
2024/02/12 03:28:28;;;;;;;10.23;2.50;;;11.90;99.90;;;;;;4982016;28;20031;-60
2024/02/12 03:30:54;;;;;;;8.90;2.20;;;12.00;99.90;;;;;;4990666;28;20030;-57
2024/02/12 03:33:20;;;;;;;9.85;3.38;;;12.10;99.90;;;;;;4986147;28;20474;-55
2024/02/12 03:35:46;;;;;;;7.53;2.53;;;12.20;99.90;;;;;;4982250;28;20494;-55
2024/02/12 03:38:11;;;;;;;7.32;2.72;;;12.10;99.90;;;;;;4990527;28;20073;-53
2024/02/12 03:40:37;;;;;;;7.85;2.85;;;;;;;;;;5006739;28;20042;-57
2024/02/12 03:43:04;;;;;;;10.55;2.95;;;12.40;99.90;;;;;;4990128;28;20093;-52
2024/02/12 03:45:31;;;;;;;8.30;2.80;;;12.50;99.90;;;;;;5001196;28;20061;-58
2024/02/12 03:48:00;;;;;;;5.78;2.63;;;12.30;99.90;;;;;;5004987;28;20045;-58
2024/02/12 04:01:28;;;;;;;8.23;2.55;;;12.20;99.90;;;;;;5016410;28;20033;-57
2024/02/12 04:03:53;;;;;;;11.77;3.03;;;12.30;99.90;;;;;;5008770;28;20054;-57
2024/02/12 04:06:20;;;;;;;8.13;2.80;;;12.50;99.90;;;;;;5007878;28;20030;-56
2024/02/12 04:08:47;;;;;;;13.52;6.00;;;12.70;99.90;;;;;;5002997;28;20080;-56
2024/02/12 04:11:13;;;;;;;5.05;2.10;;;12.50;99.90;;;;;;5006955;28;20088;-60
2024/02/12 04:13:39;;;;;;;4.22;1.70;;;12.20;99.90;;;;;;5009303;28;20034;-56
2024/02/12 04:16:09;;;;;;;6.57;1.83;;;12.20;99.90;;;;;;5004762;28;20459;-57
2024/02/12 04:18:35;;;;;;;7.28;2.55;;;12.20;99.90;;;;;;5024061;28;20391;-60
2024/02/12 04:21:08;;;;;;;7.82;1.95;;;12.30;99.90;;;;;;5007867;28;20093;-58
2024/02/12 04:23:37;;;;;;;5.13;2.10;;;12.10;99.90;;;;;;5008309;28;20044;-55
2024/02/12 04:26:06;;;;;;;9.00;2.05;;;11.90;99.90;;;;;;5006616;28;20050;-57
2024/02/12 04:28:32;;;;;;;6.40;2.10;;;11.90;99.90;;;;;;5006602;28;20030;-55
2024/02/12 04:30:58;;;;;;;6.88;1.83;;;12.10;99.90;;;;;;5009624;28;20033;-59
2024/02/12 04:33:24;;;;;;;9.70;1.60;;;12.00;99.90;;;;;;5006112;28;20386;-60
2024/02/12 04:35:50;;;;;;;7.93;1.80;;;11.90;99.90;;;;;;5011527;28;20156;-55
2024/02/12 04:38:16;;;;;;;5.47;1.90;;;11.70;99.90;;;;;;5003218;28;20084;-55
2024/02/12 04:40:42;;;;;;;8.45;1.85;;;11.80;99.90;;;;;;5035701;28;20502;-62
2024/02/12 04:43:08;;;;;;;6.25;1.67;;;11.80;99.90;;;;;;5003858;28;20072;-52
2024/02/12 04:45:33;;;;;;;7.07;2.00;;;11.90;99.90;;;;;;5018778;28;20140;-57
2024/02/12 04:47:59;;;;;;;11.15;3.38;;;11.90;99.90;;;;;;5008007;28;20113;-56
2024/02/12 04:50:25;;;;;;;9.82;5.10;;;12.00;99.90;;;;;;5007101;28;20034;-55
2024/02/12 04:52:51;;;;;;;12.25;6.32;;;12.30;99.90;;;;;;5020101;28;20450;-60
2024/02/12 04:55:17;;;;;;;8.13;3.72;;;12.50;99.90;;;;;;5009702;28;20500;-54
2024/02/12 04:57:43;;;;;;;8.13;3.70;;;;;;;;;;5018304;28;20034;-55
2024/02/12 05:00:10;;;;;;;6.15;2.42;;;12.90;99.90;;;;;;5006266;28;20040;-53
2024/02/12 05:02:42;;;;;;;8.00;2.30;;;12.70;99.90;;;;;;5006072;28;20129;-55
2024/02/12 05:05:11;;;;;;;;;;;12.90;99.90;;;;;;5012927;28;20026;-54
2024/02/12 05:07:37;;;;;;;7.75;2.30;;;12.90;99.90;;;;;;5006888;28;19924;-55
2024/02/12 05:10:03;;;;;;;6.28;2.10;;;12.60;99.90;;;;;;5009657;28;20026;-61
2024/02/12 05:12:29;;;;;;;5.97;2.45;;;12.40;99.90;;;;;;5014908;28;20393;-57
2024/02/12 05:14:56;;;;;;;9.98;2.85;;;12.10;99.90;;;;;;5008303;28;20036;-57
2024/02/12 05:17:23;;;;;;;7.05;3.60;;;12.00;99.90;;;;;;5004227;28;20378;-52
2024/02/12 05:22:34;;;;;;;8.38;3.55;;;12.10;99.90;;;;;;5003758;28;20073;-51
2024/02/12 05:25:01;;;;;;;15.18;3.88;;;12.30;99.90;;;;;;5010301;28;20041;-59
2024/02/12 05:27:28;;;;;;;12.68;4.55;;;12.50;99.90;;;;;;5006612;28;20026;-55
2024/02/12 05:29:55;;;;;;;28.23;15.40;;;12.70;99.90;;;;;;5012088;28;20056;-60
2024/02/12 05:32:22;;;;;;;33.38;16.88;;;12.90;99.90;;;;;;5005103;28;20121;-53
2024/02/12 05:34:48;;;;;;;40.08;20.88;;;13.00;99.90;;;;;;5011233;28;20077;-53
2024/02/12 05:37:14;;;;;;;25.65;14.63;;;13.10;99.90;;;;;;5009422;28;20070;-59
2024/02/12 05:39:40;;;;;;;16.70;7.35;;;13.10;99.90;;;;;;5010095;28;20041;-54
2024/02/12 05:42:07;;;;;;;14.88;6.57;;;13.10;99.90;;;;;;5005099;28;20033;-58
2024/02/12 05:44:36;;;;;;;17.10;9.18;;;13.20;99.90;;;;;;5006349;28;20400;-54
2024/02/12 05:47:05;;;;;;;18.15;6.85;;;13.20;99.90;;;;;;5006943;28;20058;-56
2024/02/12 05:49:33;;;;;;;11.15;6.03;;;13.20;99.90;;;;;;5014895;28;20049;-57
2024/02/12 05:51:59;;;;;;;19.85;7.22;;;13.20;99.90;;;;;;5001847;28;20042;-53
2024/02/12 05:54:25;;;;;;;18.48;7.75;;;13.20;99.90;;;;;;5004487;28;20065;-60
2024/02/12 05:56:52;;;;;;;15.65;8.02;;;13.20;99.90;;;;;;5012982;28;20042;-55
2024/02/12 05:59:18;;;;;;;9.88;5.60;;;13.30;99.90;;;;;;5006559;28;20038;-57
2024/02/12 06:01:44;;;;;;;10.98;5.78;;;13.30;99.90;;;;;;5008407;28;20034;-53
2024/02/12 06:04:09;;;;;;;12.63;6.80;;;13.20;99.90;;;;;;5010720;28;20042;-57
2024/02/12 06:06:39;;;;;;;10.82;7.25;;;13.20;99.90;;;;;;5010924;28;20492;-57
2024/02/12 06:09:05;;;;;;;17.33;10.88;;;13.20;99.90;;;;;;5006873;28;20089;-56
2024/02/12 06:11:31;;;;;;;10.23;8.35;;;13.30;99.90;;;;;;5005577;28;20497;-56
2024/02/12 06:13:57;;;;;;;17.70;14.57;;;13.30;99.90;;;;;;5007347;28;20038;-58
2024/02/12 06:16:23;;;;;;;14.98;9.10;;;13.30;99.90;;;;;;5013971;28;20061;-55
2024/02/12 06:18:51;;;;;;;13.57;7.55;;;13.20;99.90;;;;;;5007361;28;20061;-58
2024/02/12 06:21:17;;;;;;;13.32;6.15;;;13.10;99.90;;;;;;5022422;28;20054;-57
2024/02/12 06:23:43;;;;;;;10.00;5.35;;;13.00;99.90;;;;;;5003332;28;20524;-55
2024/02/12 06:26:10;;;;;;;10.80;5.57;;;13.00;99.90;;;;;;5012004;28;20539;-60
2024/02/12 06:28:36;;;;;;;10.00;5.40;;;12.90;99.90;;;;;;5007315;28;20045;-54
2024/02/12 06:31:02;;;;;;;11.88;5.30;;;12.80;99.90;;;;;;5037446;28;20034;-53
2024/02/12 06:33:28;;;;;;;8.70;5.82;;;12.70;99.90;;;;;;5020924;28;20048;-57
2024/02/12 06:35:56;;;;;;;8.32;4.65;;;12.50;99.90;;;;;;5009498;28;20462;-55
2024/02/12 06:38:22;;;;;;;10.27;5.40;;;12.50;99.90;;;;;;5008497;28;20037;-53
2024/02/12 06:40:48;;;;;;;9.65;5.30;;;12.50;99.90;;;;;;5006960;28;20026;-55
2024/02/12 06:43:14;;;;;;;13.73;5.30;;;12.50;99.90;;;;;;5006452;28;20071;-56
2024/02/12 06:45:40;;;;;;;13.57;6.40;;;12.20;99.90;;;;;;5004042;28;20046;-57
2024/02/12 06:48:06;;;;;;;9.95;5.72;;;12.20;99.90;;;;;;5011195;28;20029;-56
2024/02/12 06:50:32;;;;;;;9.40;5.80;;;12.00;99.90;;;;;;5033204;28;20039;-54
2024/02/12 06:52:58;;;;;;;8.90;5.07;;;;;;;;;;5007122;28;20044;-57
2024/02/12 06:55:24;;;;;;;8.10;4.72;;;11.60;99.90;;;;;;5011184;28;20031;-62
2024/02/12 06:57:49;;;;;;;9.98;5.60;;;11.20;99.90;;;;;;5015609;28;20374;-58
2024/02/12 07:00:19;;;;;;;9.55;5.63;;;11.20;99.90;;;;;;5003237;28;20050;-55
2024/02/12 07:02:46;;;;;;;14.10;6.93;;;11.10;99.90;;;;;;5000959;28;20038;-61
2024/02/12 07:05:16;;;;;;;11.77;6.60;;;11.20;99.90;;;;;;5011304;28;20057;-57
2024/02/12 07:07:42;;;;;;;16.15;8.40;;;11.20;99.90;;;;;;5001704;28;20064;-55
2024/02/12 07:10:09;;;;;;;14.48;8.48;;;11.20;99.90;;;;;;5005362;28;20112;-55
2024/02/12 07:12:38;;;;;;;19.50;10.02;;;11.10;99.90;;;;;;4998508;28;20038;-53
2024/02/12 07:15:08;;;;;;;16.60;10.60;;;11.00;99.90;;;;;;5000826;28;20046;-57
2024/02/12 07:17:34;;;;;;;13.73;8.52;;;11.00;99.90;;;;;;5030347;28;20557;-57
2024/02/12 07:20:03;;;;;;;10.45;6.93;;;11.10;99.90;;;;;;5001798;28;20125;-53
2024/02/12 07:22:29;;;;;;;10.85;7.25;;;11.00;99.90;;;;;;5009726;28;20053;-53
2024/02/12 07:24:55;;;;;;;8.07;6.15;;;10.90;99.90;;;;;;5014781;28;20502;-52
2024/02/12 07:27:21;;;;;;;12.40;7.43;;;10.90;99.90;;;;;;5004702;28;20042;-59
2024/02/12 07:29:48;;;;;;;11.93;6.32;;;10.70;99.90;;;;;;5004801;28;20038;-51
2024/02/12 07:32:14;;;;;;;11.55;7.90;;;10.80;99.90;;;;;;4997452;28;20799;-54
2024/02/12 07:34:41;;;;;;;8.00;6.95;;;10.90;99.90;;;;;;5007880;28;20105;-55
2024/02/12 07:37:07;;;;;;;8.90;6.50;;;11.00;99.90;;;;;;5000207;28;20045;-54
2024/02/12 07:39:34;;;;;;;10.85;7.70;;;11.00;99.90;;;;;;5003864;28;20160;-53
2024/02/12 07:42:00;;;;;;;14.40;9.52;;;11.00;99.90;;;;;;5004813;28;20030;-51
2024/02/12 07:44:28;;;;;;;7.93;6.03;;;11.00;99.90;;;;;;5007422;28;20038;-53
2024/02/12 07:46:54;;;;;;;7.32;6.57;;;11.00;99.90;;;;;;5005384;28;20430;-52
2024/02/12 07:49:20;;;;;;;7.75;6.65;;;11.00;99.90;;;;;;5009620;28;20133;-53
2024/02/12 07:51:47;;;;;;;7.97;7.18;;;11.10;99.90;;;;;;5004320;28;20394;-51
2024/02/12 07:54:13;;;;;;;14.05;10.18;;;11.10;99.90;;;;;;5000214;28;20034;-53
2024/02/12 07:56:43;;;;;;;9.48;7.72;;;11.10;99.90;;;;;;5003726;28;20033;-54
2024/02/12 07:59:09;;;;;;;9.20;7.80;;;11.00;99.90;;;;;;5002203;28;20026;-53
2024/02/12 08:01:35;;;;;;;9.82;6.15;;;11.10;99.90;;;;;;5016569;28;20128;-50
2024/02/12 08:04:00;;;;;;;9.40;6.82;;;11.00;99.90;;;;;;5006892;28;20066;-53
2024/02/12 08:06:26;;;;;;;8.10;6.70;;;11.10;99.90;;;;;;5020142;28;20034;-52
2024/02/12 08:08:53;;;;;;;8.45;7.55;;;11.10;99.90;;;;;;5002003;28;20141;-51
2024/02/12 08:11:20;;;;;;;9.77;8.43;;;11.10;99.90;;;;;;5001843;28;20075;-52
2024/02/12 08:13:46;;;;;;;13.35;9.35;;;11.20;99.90;;;;;;5006254;28;20038;-51
2024/02/12 08:16:12;;;;;;;8.50;7.20;;;11.40;99.90;;;;;;5000504;28;20046;-52
2024/02/12 08:18:38;;;;;;;9.02;7.40;;;11.30;99.90;;;;;;5006305;28;20035;-55
2024/02/12 08:21:04;;;;;;;10.05;8.57;;;11.10;99.90;;;;;;5006442;28;20026;-51
2024/02/12 08:23:30;;;;;;;9.57;8.60;;;11.20;99.90;;;;;;5009075;28;20049;-54
2024/02/12 08:25:56;;;;;;;8.40;7.20;;;11.20;99.90;;;;;;5008399;28;20030;-49
2024/02/12 08:28:24;;;;;;;5.57;4.75;;;11.30;99.90;;;;;;5005570;28;20026;-51
2024/02/12 08:30:52;;;;;;;10.70;8.45;;;11.10;99.90;;;;;;5002983;28;20122;-56
2024/02/12 08:33:18;;;;;;;6.78;6.00;;;11.30;99.90;;;;;;5010921;28;20502;-50
2024/02/12 08:35:44;;;;;;;12.65;10.93;;;11.30;99.90;;;;;;5013339;28;20076;-50
2024/02/12 08:38:09;;;;;;;12.52;10.05;;;11.40;99.90;;;;;;5021891;28;20042;-50
2024/02/12 08:40:38;;;;;;;4.75;4.22;;;11.50;99.90;;;;;;5011937;28;20042;-52
2024/02/12 08:43:05;;;;;;;9.13;7.70;;;11.20;99.90;;;;;;5006427;28;20042;-51
2024/02/12 08:45:31;;;;;;;7.82;7.03;;;11.30;99.90;;;;;;5007338;28;20038;-53
2024/02/12 08:47:57;;;;;;;6.53;5.88;;;11.40;99.90;;;;;;5010102;28;20104;-52
2024/02/12 08:50:23;;;;;;;6.72;6.03;;;11.20;99.90;;;;;;5008011;28;20074;-52
2024/02/12 08:52:49;;;;;;;6.10;5.50;;;11.30;99.90;;;;;;4999604;28;20034;-54
2024/02/12 08:55:16;;;;;;;6.13;5.47;;;11.30;99.90;;;;;;5011507;28;20429;-52
2024/02/12 08:57:42;;;;;;;7.53;6.70;;;11.40;99.90;;;;;;4999439;28;20147;-51
2024/02/12 09:00:10;;;;;;;7.35;6.55;;;11.20;99.90;;;;;;5001319;28;20034;-52
2024/02/12 09:02:36;;;;;;;6.03;5.43;;;11.40;99.90;;;;;;5022110;28;20105;-53
2024/02/12 09:05:03;;;;;;;7.82;5.25;;;11.30;99.90;;;;;;5006492;28;20054;-52
2024/02/12 09:07:29;;;;;;;5.78;5.18;;;11.30;99.90;;;;;;5005922;28;20061;-53
2024/02/12 09:09:55;;;;;;;5.35;4.78;;;11.30;99.90;;;;;;5002673;28;20113;-54
2024/02/12 09:12:21;;;;;;;6.60;5.35;;;11.30;99.90;;;;;;5006021;28;20049;-52
2024/02/12 09:14:47;;;;;;;7.40;6.03;;;11.20;99.90;;;;;;5008909;28;20038;-55
2024/02/12 09:17:15;;;;;;;7.15;6.43;;;11.30;99.90;;;;;;5006996;28;20040;-54
2024/02/12 09:19:41;;;;;;;6.22;5.63;;;11.30;99.90;;;;;;5001977;28;20030;-55
2024/02/12 09:22:09;;;;;;;7.60;6.40;;;11.40;99.90;;;;;;5003366;28;20121;-55
2024/02/12 09:24:37;;;;;;;6.80;5.78;;;11.50;99.90;;;;;;5007239;28;20038;-55
2024/02/12 09:27:03;;;;;;;16.00;10.70;;;11.70;99.90;;;;;;5005783;28;20408;-52
2024/02/12 09:29:28;;;;;;;7.40;6.20;;;11.60;99.90;;;;;;5021762;28;20061;-53
2024/02/12 09:31:55;;;;;;;5.88;5.28;;;11.40;99.90;;;;;;5008286;28;20474;-56
2024/02/12 09:34:21;;;;;;;6.18;5.57;;;11.60;99.90;;;;;;5025982;28;20530;-52
2024/02/12 09:36:47;;;;;;;5.82;5.18;;;11.70;99.90;;;;;;5024903;28;20050;-55
2024/02/12 09:39:15;;;;;;;10.32;5.25;;;11.70;99.90;;;;;;5006362;28;20042;-54
2024/02/12 09:41:47;;;;;;;4.60;3.88;;;11.70;99.90;;;;;;5034320;28;20443;-51
2024/02/12 09:44:17;;;;;;;8.43;5.60;;;11.60;99.90;;;;;;5000886;28;20050;-54
2024/02/12 09:46:49;;;;;;;9.23;5.72;;;11.60;99.90;;;;;;5004154;28;20061;-55
2024/02/12 09:49:17;;;;;;;6.97;6.28;;;11.60;99.90;;;;;;5006213;28;20033;-55
2024/02/12 09:51:48;;;;;;;7.97;4.82;;;11.70;99.90;;;;;;5001672;28;20038;-54
2024/02/12 09:54:15;;;;;;;5.28;4.75;;;11.50;99.90;;;;;;5007950;28;20421;-56
2024/02/12 09:56:43;;;;;;;6.03;4.65;;;11.70;99.90;;;;;;5006162;28;20041;-55
2024/02/12 09:59:09;;;;;;;5.80;5.20;;;11.60;99.90;;;;;;5005029;28;20037;-54
2024/02/12 10:01:36;;;;;;;5.85;5.22;;;11.70;99.90;;;;;;5000372;28;20092;-51
2024/02/12 10:04:02;;;;;;;6.50;4.82;;;11.70;99.90;;;;;;5008423;28;20050;-56
2024/02/12 10:06:28;;;;;;;5.65;5.15;;;11.70;99.90;;;;;;5007717;28;20438;-54
2024/02/12 10:09:08;;;;;;;5.50;4.45;;;11.80;99.90;;;;;;5009075;28;20145;-53
2024/02/12 10:11:34;;;;;;;4.28;3.58;;;11.80;99.90;;;;;;5006377;28;20030;-53
2024/02/12 10:14:04;;;;;;;5.40;4.55;;;11.50;99.90;;;;;;5003281;28;20039;-53
2024/02/12 10:16:30;;;;;;;5.75;4.25;;;11.70;99.90;;;;;;5006477;28;20038;-52
2024/02/12 10:18:58;;;;;;;5.18;4.68;;;11.70;99.90;;;;;;5009094;28;20034;-56
2024/02/12 10:21:24;;;;;;;5.05;4.55;;;11.80;99.90;;;;;;5004385;28;20101;-53
2024/02/12 10:23:53;;;;;;;6.43;4.60;;;11.90;99.90;;;;;;5005143;28;20033;-55
2024/02/12 10:26:22;;;;;;;4.95;4.22;;;12.00;99.90;;;;;;5010566;28;20038;-53
2024/02/12 10:28:54;;;;;;;5.30;4.70;;;12.10;99.90;;;;;;5001176;28;20072;-54
2024/02/12 10:31:24;;;;;;;4.57;4.18;;;12.00;99.90;;;;;;5006641;28;20029;-55
2024/02/12 10:33:54;;;;;;;6.90;5.00;;;12.00;99.90;;;;;;5005372;28;20037;-53
2024/02/12 10:36:20;;;;;;;4.70;4.20;;;;;;;;;;5008604;28;20022;-54
2024/02/12 10:38:49;;;;;;;4.70;3.60;;;12.20;99.90;;;;;;5009423;28;20038;-53
2024/02/12 10:41:32;;;;;;;4.80;4.00;;;12.30;99.90;;;;;;5003428;28;20021;-56
2024/02/12 10:43:58;;;;;;;3.55;3.25;;;12.30;99.90;;;;;;4997354;28;20723;-55
2024/02/12 10:46:34;;;;;;;5.85;4.75;;;12.30;99.90;;;;;;5000377;28;20112;-54
2024/02/12 10:49:01;;;;;;;7.78;6.22;;;12.50;99.90;;;;;;5006236;28;20026;-55
2024/02/12 10:51:28;;;;;;;7.53;4.70;;;12.60;99.90;;;;;;5001886;28;20022;-55
2024/02/12 10:53:55;;;;;;;8.15;6.60;;;12.50;99.90;;;;;;4998887;28;20056;-55
2024/02/12 10:56:22;;;;;;;5.43;4.22;;;12.60;99.90;;;;;;5008754;28;20026;-53
2024/02/12 10:58:49;;;;;;;5.80;4.30;;;12.50;99.90;;;;;;5009849;28;20038;-54
2024/02/12 11:01:15;;;;;;;4.70;3.60;;;12.70;99.90;;;;;;5003360;28;20026;-57
2024/02/12 11:03:47;;;;;;;9.10;4.45;;;12.80;99.90;;;;;;5004988;28;20069;-54
2024/02/12 11:06:17;;;;;;;5.18;3.58;;;12.70;99.90;;;;;;5004353;28;20050;-55
2024/02/12 11:08:44;;;;;;;3.63;2.70;;;12.70;99.90;;;;;;5006742;28;20572;-54
2024/02/12 11:11:15;;;;;;;3.22;2.60;;;;;;;;;;5005409;28;20501;-56
2024/02/12 11:13:44;;;;;;;3.55;3.13;;;;;;;;;;5003735;28;20029;-55
2024/02/12 11:16:15;;;;;;;8.50;2.90;;;;;;;;;;4998086;28;20068;-53
2024/02/12 11:18:41;;;;;;;3.72;3.20;;;12.90;99.90;;;;;;5004683;28;20029;-55
2024/02/12 11:21:09;;;;;;;5.60;4.13;;;12.80;99.90;;;;;;5004628;28;20038;-57
2024/02/12 11:23:35;;;;;;;3.85;2.97;;;12.80;99.90;;;;;;5000527;28;20139;-55
2024/02/12 11:26:02;;;;;;;6.18;4.50;;;12.70;99.90;;;;;;4999730;28;20640;-52
2024/02/12 11:28:30;;;;;;;4.53;4.13;;;12.70;99.90;;;;;;5019789;28;20424;-57
2024/02/12 11:30:56;;;;;;;4.40;4.00;;;12.80;99.90;;;;;;5018662;28;20041;-55
2024/02/12 11:33:25;;;;;;;4.50;3.90;;;12.80;99.90;;;;;;5013743;28;20200;-57
2024/02/12 11:36:08;;;;;;;7.28;4.50;;;12.80;99.90;;;;;;5018361;28;20113;-57
2024/02/12 11:38:49;;;;;;;6.00;4.00;;;12.80;99.90;;;;;;5019890;28;20398;-57
2024/02/12 11:41:15;;;;;;;5.68;4.82;;;12.70;99.90;;;;;;5019120;28;20065;-53
2024/02/12 11:43:42;;;;;;;4.82;3.72;;;12.70;99.90;;;;;;5018311;28;20509;-53
2024/02/12 11:46:13;;;;;;;6.60;4.25;;;12.70;99.90;;;;;;5021978;28;20045;-58
2024/02/12 11:48:39;;;;;;;5.63;3.53;;;12.70;99.90;;;;;;5019309;28;20042;-55
2024/02/12 11:51:07;;;;;;;5.82;3.97;;;12.60;99.90;;;;;;5028050;28;20064;-56
2024/02/12 11:53:39;;;;;;;4.30;3.90;;;12.50;99.90;;;;;;5038025;28;20049;-56
2024/02/12 11:56:06;;;;;;;4.38;3.28;;;;;;;;;;5020575;28;20029;-55
2024/02/12 11:58:32;;;;;;;6.75;5.57;;;;;;;;;;5014841;28;20049;-57
2024/02/12 12:00:58;;;;;;;6.38;4.90;;;;;;;;;;5011153;28;20115;-54
2024/02/12 12:03:25;;;;;;;4.63;3.88;;;;;;;;;;5021551;28;20042;-54
2024/02/12 12:05:52;;;;;;;4.85;3.97;;;;;;;;;;5000382;28;20038;-57
2024/02/12 12:08:26;;;;;;;8.80;5.82;;;12.90;99.90;;;;;;5002477;28;20062;-54
2024/02/12 12:10:52;;;;;;;9.73;6.13;;;12.80;99.90;;;;;;5012097;28;20038;-56
2024/02/12 12:13:20;;;;;;;14.77;7.43;;;12.90;99.90;;;;;;5023917;28;20036;-55
2024/02/12 12:15:46;;;;;;;11.73;7.45;;;12.90;99.90;;;;;;5004551;28;20038;-55
2024/02/12 12:18:12;;;;;;;6.32;4.50;;;12.80;99.90;;;;;;5010912;28;20056;-52
2024/02/12 12:20:40;;;;;;;9.80;7.22;;;12.80;99.90;;;;;;5015381;28;20150;-52
2024/02/12 12:23:09;;;;;;;5.97;4.53;;;12.80;99.90;;;;;;5009660;28;20029;-52
2024/02/12 12:25:39;;;;;;;6.25;5.15;;;12.60;99.90;;;;;;5014880;28;20069;-53
2024/02/12 12:28:08;;;;;;;9.68;6.55;;;12.60;99.90;;;;;;5007456;28;20554;-53
2024/02/12 12:30:34;;;;;;;7.55;4.43;;;12.70;99.90;;;;;;5014811;28;20045;-55
2024/02/12 12:33:00;;;;;;;9.48;5.85;;;12.70;99.90;;;;;;5003615;28;20390;-56
2024/02/12 12:35:26;;;;;;;14.48;5.50;;;12.70;99.90;;;;;;5026831;28;20121;-54
2024/02/12 12:37:52;;;;;;;8.77;7.00;;;12.70;99.90;;;;;;5005685;28;20042;-55
2024/02/12 12:40:25;;;;;;;5.40;3.42;;;12.60;99.90;;;;;;5002510;28;20049;-55
2024/02/12 12:42:53;;;;;;;5.90;4.20;;;12.40;99.90;;;;;;5010352;28;20038;-57
2024/02/12 12:45:21;;;;;;;7.32;4.20;;;12.30;99.90;;;;;;5010692;28;20084;-52
2024/02/12 12:47:48;;;;;;;4.28;3.58;;;12.30;99.90;;;;;;5007302;28;20049;-56
2024/02/12 12:50:14;;;;;;;4.30;3.40;;;12.40;99.90;;;;;;5008545;28;20042;-54
2024/02/12 12:52:41;;;;;;;8.57;4.10;;;12.30;99.90;;;;;;4999441;28;20042;-52
2024/02/12 12:55:11;;;;;;;4.65;3.50;;;12.40;99.90;;;;;;5005384;28;20026;-57
2024/02/12 12:57:38;;;;;;;6.13;4.18;;;12.50;99.90;;;;;;5010374;28;20556;-57
2024/02/12 13:00:31;;;;;;;4.75;4.05;;;12.50;99.90;;;;;;5012617;28;20030;-57
2024/02/12 13:02:53;;;;;;;6.50;4.22;;;12.50;99.90;;;;;;5025949;28;20054;-56